sensor_id;sensor_type;location;lat;lon;timestamp;P1;durP1;ratioP1;P2;durP2;ratioP2
68583;SDS011;55557;49.220;11.150;2024-02-04T00:00:35;2.50;;;1.07;;
68583;SDS011;55557;49.220;11.150;2024-02-04T00:03:02;3.00;;;1.10;;
68583;SDS011;55557;49.220;11.150;2024-02-04T00:05:28;1.00;;;0.90;;
68583;SDS011;55557;49.220;11.150;2024-02-04T00:07:54;0.80;;;0.80;;
68583;SDS011;55557;49.220;11.150;2024-02-04T00:10:20;1.93;;;1.23;;
68583;SDS011;55557;49.220;11.150;2024-02-04T00:12:46;2.70;;;0.80;;
68583;SDS011;55557;49.220;11.150;2024-02-04T00:15:12;3.93;;;1.00;;
68583;SDS011;55557;49.220;11.150;2024-02-04T00:17:38;3.57;;;0.80;;
68583;SDS011;55557;49.220;11.150;2024-02-04T00:20:04;1.90;;;0.80;;
68583;SDS011;55557;49.220;11.150;2024-02-04T00:22:31;1.13;;;0.77;;
68583;SDS011;55557;49.220;11.150;2024-02-04T00:24:59;1.63;;;0.87;;
68583;SDS011;55557;49.220;11.150;2024-02-04T00:27:26;0.90;;;0.80;;
68583;SDS011;55557;49.220;11.150;2024-02-04T00:29:52;0.70;;;0.70;;
68583;SDS011;55557;49.220;11.150;2024-02-04T00:32:18;0.73;;;0.73;;
68583;SDS011;55557;49.220;11.150;2024-02-04T00:34:44;0.60;;;0.60;;
68583;SDS011;55557;49.220;11.150;2024-02-04T00:37:10;0.60;;;0.60;;
68583;SDS011;55557;49.220;11.150;2024-02-04T00:39:36;0.60;;;0.60;;
68583;SDS011;55557;49.220;11.150;2024-02-04T00:42:02;1.70;;;0.80;;
68583;SDS011;55557;49.220;11.150;2024-02-04T00:44:28;1.00;;;0.90;;
68583;SDS011;55557;49.220;11.150;2024-02-04T00:46:54;0.93;;;0.87;;
68583;SDS011;55557;49.220;11.150;2024-02-04T00:49:20;0.70;;;0.70;;
68583;SDS011;55557;49.220;11.150;2024-02-04T00:51:46;0.80;;;0.80;;
68583;SDS011;55557;49.220;11.150;2024-02-04T00:54:12;0.50;;;0.50;;
68583;SDS011;55557;49.220;11.150;2024-02-04T00:56:38;1.13;;;0.83;;
68583;SDS011;55557;49.220;11.150;2024-02-04T00:59:04;0.73;;;0.73;;
68583;SDS011;55557;49.220;11.150;2024-02-04T01:01:30;0.90;;;0.80;;
68583;SDS011;55557;49.220;11.150;2024-02-04T01:03:56;2.40;;;0.80;;
68583;SDS011;55557;49.220;11.150;2024-02-04T01:06:22;0.60;;;0.60;;
68583;SDS011;55557;49.220;11.150;2024-02-04T01:08:48;0.87;;;0.87;;
68583;SDS011;55557;49.220;11.150;2024-02-04T01:11:15;1.30;;;0.80;;
68583;SDS011;55557;49.220;11.150;2024-02-04T01:13:41;0.53;;;0.53;;
68583;SDS011;55557;49.220;11.150;2024-02-04T01:16:07;0.60;;;0.60;;
68583;SDS011;55557;49.220;11.150;2024-02-04T01:18:33;0.70;;;0.70;;
68583;SDS011;55557;49.220;11.150;2024-02-04T01:20:59;0.97;;;0.63;;
68583;SDS011;55557;49.220;11.150;2024-02-04T01:23:25;0.50;;;0.50;;
68583;SDS011;55557;49.220;11.150;2024-02-04T01:25:51;3.07;;;0.67;;
68583;SDS011;55557;49.220;11.150;2024-02-04T01:28:17;1.73;;;0.70;;
68583;SDS011;55557;49.220;11.150;2024-02-04T01:30:43;1.47;;;1.10;;
68583;SDS011;55557;49.220;11.150;2024-02-04T01:33:09;1.20;;;0.97;;
68583;SDS011;55557;49.220;11.150;2024-02-04T01:35:35;0.70;;;0.70;;
68583;SDS011;55557;49.220;11.150;2024-02-04T01:38:01;0.83;;;0.80;;
68583;SDS011;55557;49.220;11.150;2024-02-04T01:40:27;0.60;;;0.60;;
68583;SDS011;55557;49.220;11.150;2024-02-04T01:42:53;0.63;;;0.63;;
68583;SDS011;55557;49.220;11.150;2024-02-04T01:45:20;0.87;;;0.70;;
68583;SDS011;55557;49.220;11.150;2024-02-04T01:47:46;1.00;;;0.77;;
68583;SDS011;55557;49.220;11.150;2024-02-04T01:50:12;0.67;;;0.67;;
68583;SDS011;55557;49.220;11.150;2024-02-04T01:52:39;1.20;;;1.10;;
68583;SDS011;55557;49.220;11.150;2024-02-04T01:55:06;0.60;;;0.60;;
68583;SDS011;55557;49.220;11.150;2024-02-04T01:57:32;0.83;;;0.57;;
68583;SDS011;55557;49.220;11.150;2024-02-04T02:00:00;1.33;;;0.50;;
68583;SDS011;55557;49.220;11.150;2024-02-04T02:02:26;0.57;;;0.57;;
68583;SDS011;55557;49.220;11.150;2024-02-04T02:04:52;0.70;;;0.70;;
68583;SDS011;55557;49.220;11.150;2024-02-04T02:07:18;1.03;;;0.80;;
68583;SDS011;55557;49.220;11.150;2024-02-04T02:09:46;0.50;;;0.50;;
68583;SDS011;55557;49.220;11.150;2024-02-04T02:12:13;0.83;;;0.60;;
68583;SDS011;55557;49.220;11.150;2024-02-04T02:14:48;0.67;;;0.60;;
68583;SDS011;55557;49.220;11.150;2024-02-04T02:17:16;0.60;;;0.60;;
68583;SDS011;55557;49.220;11.150;2024-02-04T02:19:46;0.50;;;0.50;;
68583;SDS011;55557;49.220;11.150;2024-02-04T02:24:39;0.57;;;0.37;;
68583;SDS011;55557;49.220;11.150;2024-02-04T02:27:06;0.53;;;0.40;;
68583;SDS011;55557;49.220;11.150;2024-02-04T02:29:32;0.73;;;0.67;;
68583;SDS011;55557;49.220;11.150;2024-02-04T02:31:58;0.60;;;0.60;;
68583;SDS011;55557;49.220;11.150;2024-02-04T02:34:24;0.50;;;0.50;;
68583;SDS011;55557;49.220;11.150;2024-02-04T02:36:52;0.70;;;0.60;;
68583;SDS011;55557;49.220;11.150;2024-02-04T02:39:21;0.37;;;0.37;;
68583;SDS011;55557;49.220;11.150;2024-02-04T02:41:49;0.63;;;0.50;;
68583;SDS011;55557;49.220;11.150;2024-02-04T02:44:16;0.40;;;0.40;;
68583;SDS011;55557;49.220;11.150;2024-02-04T02:46:43;0.73;;;0.47;;
68583;SDS011;55557;49.220;11.150;2024-02-04T02:49:09;1.63;;;0.70;;
68583;SDS011;55557;49.220;11.150;2024-02-04T02:51:35;0.67;;;0.50;;
68583;SDS011;55557;49.220;11.150;2024-02-04T02:54:01;0.20;;;0.20;;
68583;SDS011;55557;49.220;11.150;2024-02-04T02:56:27;0.37;;;0.33;;
68583;SDS011;55557;49.220;11.150;2024-02-04T02:58:53;0.67;;;0.37;;
68583;SDS011;55557;49.220;11.150;2024-02-04T03:01:19;0.80;;;0.50;;
68583;SDS011;55557;49.220;11.150;2024-02-04T03:03:45;0.50;;;0.47;;
68583;SDS011;55557;49.220;11.150;2024-02-04T03:06:11;0.73;;;0.57;;
68583;SDS011;55557;49.220;11.150;2024-02-04T03:08:37;1.17;;;0.50;;
68583;SDS011;55557;49.220;11.150;2024-02-04T03:11:03;0.30;;;0.30;;
68583;SDS011;55557;49.220;11.150;2024-02-04T03:13:29;2.10;;;0.60;;
68583;SDS011;55557;49.220;11.150;2024-02-04T03:15:56;1.23;;;0.60;;
68583;SDS011;55557;49.220;11.150;2024-02-04T03:18:22;0.47;;;0.47;;
68583;SDS011;55557;49.220;11.150;2024-02-04T03:20:47;0.57;;;0.57;;
68583;SDS011;55557;49.220;11.150;2024-02-04T03:23:13;0.87;;;0.40;;
68583;SDS011;55557;49.220;11.150;2024-02-04T03:25:39;0.57;;;0.57;;
68583;SDS011;55557;49.220;11.150;2024-02-04T03:28:06;0.53;;;0.53;;
68583;SDS011;55557;49.220;11.150;2024-02-04T03:30:32;0.73;;;0.70;;
68583;SDS011;55557;49.220;11.150;2024-02-04T03:32:57;0.60;;;0.57;;
68583;SDS011;55557;49.220;11.150;2024-02-04T03:35:23;0.73;;;0.73;;
68583;SDS011;55557;49.220;11.150;2024-02-04T03:37:49;1.60;;;0.97;;
68583;SDS011;55557;49.220;11.150;2024-02-04T03:40:15;3.37;;;0.90;;
68583;SDS011;55557;49.220;11.150;2024-02-04T03:42:44;0.93;;;0.80;;
68583;SDS011;55557;49.220;11.150;2024-02-04T03:45:10;1.30;;;1.20;;
68583;SDS011;55557;49.220;11.150;2024-02-04T03:47:36;1.30;;;1.20;;
68583;SDS011;55557;49.220;11.150;2024-02-04T03:50:02;1.73;;;1.40;;
68583;SDS011;55557;49.220;11.150;2024-02-04T03:52:28;3.57;;;1.03;;
68583;SDS011;55557;49.220;11.150;2024-02-04T03:54:54;1.20;;;1.10;;
68583;SDS011;55557;49.220;11.150;2024-02-04T03:57:20;1.20;;;1.00;;
68583;SDS011;55557;49.220;11.150;2024-02-04T03:59:46;1.47;;;0.93;;
68583;SDS011;55557;49.220;11.150;2024-02-04T04:02:12;1.53;;;1.00;;
68583;SDS011;55557;49.220;11.150;2024-02-04T04:04:42;2.37;;;1.20;;
68583;SDS011;55557;49.220;11.150;2024-02-04T04:07:12;1.40;;;1.30;;
68583;SDS011;55557;49.220;11.150;2024-02-04T04:09:38;1.23;;;1.10;;
68583;SDS011;55557;49.220;11.150;2024-02-04T04:12:04;0.80;;;0.80;;
68583;SDS011;55557;49.220;11.150;2024-02-04T04:14:30;1.07;;;0.97;;
68583;SDS011;55557;49.220;11.150;2024-02-04T04:16:56;1.20;;;1.10;;
68583;SDS011;55557;49.220;11.150;2024-02-04T04:19:22;3.67;;;1.37;;
68583;SDS011;55557;49.220;11.150;2024-02-04T04:21:49;0.77;;;0.77;;
68583;SDS011;55557;49.220;11.150;2024-02-04T04:24:15;4.20;;;1.10;;
68583;SDS011;55557;49.220;11.150;2024-02-04T04:26:44;2.90;;;1.10;;
68583;SDS011;55557;49.220;11.150;2024-02-04T04:29:10;1.80;;;1.20;;
68583;SDS011;55557;49.220;11.150;2024-02-04T04:31:36;1.97;;;1.17;;
68583;SDS011;55557;49.220;11.150;2024-02-04T04:34:02;1.27;;;1.17;;
68583;SDS011;55557;49.220;11.150;2024-02-04T04:36:28;1.13;;;1.03;;
68583;SDS011;55557;49.220;11.150;2024-02-04T04:38:54;0.90;;;0.90;;
68583;SDS011;55557;49.220;11.150;2024-02-04T04:41:20;1.47;;;1.10;;
68583;SDS011;55557;49.220;11.150;2024-02-04T04:43:46;1.30;;;1.20;;
68583;SDS011;55557;49.220;11.150;2024-02-04T04:46:12;1.40;;;1.20;;
68583;SDS011;55557;49.220;11.150;2024-02-04T04:48:38;1.07;;;0.97;;
68583;SDS011;55557;49.220;11.150;2024-02-04T04:51:04;1.60;;;1.03;;
68583;SDS011;55557;49.220;11.150;2024-02-04T04:53:33;1.33;;;1.17;;
68583;SDS011;55557;49.220;11.150;2024-02-04T04:55:59;1.10;;;1.00;;
68583;SDS011;55557;49.220;11.150;2024-02-04T04:58:25;1.07;;;1.00;;
68583;SDS011;55557;49.220;11.150;2024-02-04T05:00:51;0.80;;;0.80;;
68583;SDS011;55557;49.220;11.150;2024-02-04T05:03:17;3.77;;;0.90;;
68583;SDS011;55557;49.220;11.150;2024-02-04T05:05:43;1.10;;;1.00;;
68583;SDS011;55557;49.220;11.150;2024-02-04T05:08:09;1.33;;;1.07;;
68583;SDS011;55557;49.220;11.150;2024-02-04T05:10:35;0.90;;;0.90;;
68583;SDS011;55557;49.220;11.150;2024-02-04T05:13:01;0.77;;;0.77;;
68583;SDS011;55557;49.220;11.150;2024-02-04T05:15:27;0.60;;;0.60;;
68583;SDS011;55557;49.220;11.150;2024-02-04T05:17:54;0.77;;;0.77;;
68583;SDS011;55557;49.220;11.150;2024-02-04T05:20:20;1.07;;;0.87;;
68583;SDS011;55557;49.220;11.150;2024-02-04T05:22:46;2.13;;;0.83;;
68583;SDS011;55557;49.220;11.150;2024-02-04T05:25:12;0.60;;;0.60;;
68583;SDS011;55557;49.220;11.150;2024-02-04T05:27:38;0.47;;;0.47;;
68583;SDS011;55557;49.220;11.150;2024-02-04T05:30:05;0.60;;;0.60;;
68583;SDS011;55557;49.220;11.150;2024-02-04T05:32:31;0.50;;;0.50;;
68583;SDS011;55557;49.220;11.150;2024-02-04T05:34:57;1.53;;;0.80;;
68583;SDS011;55557;49.220;11.150;2024-02-04T05:37:23;0.60;;;0.60;;
68583;SDS011;55557;49.220;11.150;2024-02-04T05:39:49;0.57;;;0.40;;
68583;SDS011;55557;49.220;11.150;2024-02-04T05:42:15;1.33;;;0.60;;
68583;SDS011;55557;49.220;11.150;2024-02-04T05:44:41;0.63;;;0.63;;
68583;SDS011;55557;49.220;11.150;2024-02-04T05:47:07;0.40;;;0.40;;
68583;SDS011;55557;49.220;11.150;2024-02-04T05:49:33;1.10;;;0.80;;
68583;SDS011;55557;49.220;11.150;2024-02-04T05:51:59;0.40;;;0.40;;
68583;SDS011;55557;49.220;11.150;2024-02-04T05:54:25;3.30;;;0.60;;
68583;SDS011;55557;49.220;11.150;2024-02-04T05:56:51;1.03;;;0.47;;
68583;SDS011;55557;49.220;11.150;2024-02-04T05:59:17;0.30;;;0.30;;
68583;SDS011;55557;49.220;11.150;2024-02-04T06:01:43;0.57;;;0.40;;
68583;SDS011;55557;49.220;11.150;2024-02-04T06:04:09;0.63;;;0.53;;
68583;SDS011;55557;49.220;11.150;2024-02-04T06:06:35;0.30;;;0.30;;
68583;SDS011;55557;49.220;11.150;2024-02-04T06:09:01;0.37;;;0.37;;
68583;SDS011;55557;49.220;11.150;2024-02-04T06:11:27;0.40;;;0.40;;
68583;SDS011;55557;49.220;11.150;2024-02-04T06:13:53;0.30;;;0.20;;
68583;SDS011;55557;49.220;11.150;2024-02-04T06:16:19;0.60;;;0.60;;
68583;SDS011;55557;49.220;11.150;2024-02-04T06:18:45;0.50;;;0.50;;
68583;SDS011;55557;49.220;11.150;2024-02-04T06:21:11;0.50;;;0.50;;
68583;SDS011;55557;49.220;11.150;2024-02-04T06:23:38;0.40;;;0.40;;
68583;SDS011;55557;49.220;11.150;2024-02-04T06:26:04;0.50;;;0.50;;
68583;SDS011;55557;49.220;11.150;2024-02-04T06:28:30;0.60;;;0.60;;
68583;SDS011;55557;49.220;11.150;2024-02-04T06:30:56;1.10;;;0.80;;
68583;SDS011;55557;49.220;11.150;2024-02-04T06:33:22;0.90;;;0.60;;
68583;SDS011;55557;49.220;11.150;2024-02-04T06:35:49;0.87;;;0.80;;
68583;SDS011;55557;49.220;11.150;2024-02-04T06:38:15;0.80;;;0.80;;
68583;SDS011;55557;49.220;11.150;2024-02-04T06:40:41;1.07;;;0.90;;
68583;SDS011;55557;49.220;11.150;2024-02-04T06:43:07;1.50;;;1.23;;
68583;SDS011;55557;49.220;11.150;2024-02-04T06:45:33;0.50;;;0.50;;
68583;SDS011;55557;49.220;11.150;2024-02-04T06:47:59;0.70;;;0.70;;
68583;SDS011;55557;49.220;11.150;2024-02-04T06:50:25;0.70;;;0.70;;
68583;SDS011;55557;49.220;11.150;2024-02-04T06:52:51;0.60;;;0.50;;
68583;SDS011;55557;49.220;11.150;2024-02-04T06:55:17;0.50;;;0.50;;
68583;SDS011;55557;49.220;11.150;2024-02-04T06:57:44;0.80;;;0.80;;
68583;SDS011;55557;49.220;11.150;2024-02-04T07:00:10;1.00;;;0.90;;
68583;SDS011;55557;49.220;11.150;2024-02-04T07:02:36;0.70;;;0.70;;
68583;SDS011;55557;49.220;11.150;2024-02-04T07:05:03;2.17;;;0.80;;
68583;SDS011;55557;49.220;11.150;2024-02-04T07:07:29;1.17;;;0.80;;
68583;SDS011;55557;49.220;11.150;2024-02-04T07:09:57;1.80;;;0.80;;
68583;SDS011;55557;49.220;11.150;2024-02-04T07:12:23;0.50;;;0.50;;
68583;SDS011;55557;49.220;11.150;2024-02-04T07:14:49;1.40;;;1.00;;
68583;SDS011;55557;49.220;11.150;2024-02-04T07:17:15;0.93;;;0.83;;
68583;SDS011;55557;49.220;11.150;2024-02-04T07:19:41;1.07;;;0.97;;
68583;SDS011;55557;49.220;11.150;2024-02-04T07:22:07;2.03;;;1.13;;
68583;SDS011;55557;49.220;11.150;2024-02-04T07:24:33;0.67;;;0.67;;
68583;SDS011;55557;49.220;11.150;2024-02-04T07:27:00;0.60;;;0.60;;
68583;SDS011;55557;49.220;11.150;2024-02-04T07:29:26;0.70;;;0.70;;
68583;SDS011;55557;49.220;11.150;2024-02-04T07:31:52;0.70;;;0.70;;
68583;SDS011;55557;49.220;11.150;2024-02-04T07:34:18;1.13;;;1.03;;
68583;SDS011;55557;49.220;11.150;2024-02-04T07:36:44;1.23;;;1.07;;
68583;SDS011;55557;49.220;11.150;2024-02-04T07:39:10;2.63;;;1.43;;
68583;SDS011;55557;49.220;11.150;2024-02-04T07:41:36;1.23;;;1.13;;
68583;SDS011;55557;49.220;11.150;2024-02-04T07:44:02;1.40;;;1.10;;
68583;SDS011;55557;49.220;11.150;2024-02-04T07:46:29;2.30;;;1.93;;
68583;SDS011;55557;49.220;11.150;2024-02-04T07:48:55;2.60;;;2.20;;
68583;SDS011;55557;49.220;11.150;2024-02-04T07:51:21;1.97;;;1.63;;
68583;SDS011;55557;49.220;11.150;2024-02-04T07:53:48;1.27;;;1.17;;
68583;SDS011;55557;49.220;11.150;2024-02-04T07:56:15;2.60;;;1.00;;
68583;SDS011;55557;49.220;11.150;2024-02-04T07:58:41;1.93;;;1.70;;
68583;SDS011;55557;49.220;11.150;2024-02-04T08:01:07;5.37;;;1.80;;
68583;SDS011;55557;49.220;11.150;2024-02-04T08:03:33;3.77;;;2.80;;
68583;SDS011;55557;49.220;11.150;2024-02-04T08:05:59;3.33;;;2.40;;
68583;SDS011;55557;49.220;11.150;2024-02-04T08:08:25;2.20;;;2.00;;
68583;SDS011;55557;49.220;11.150;2024-02-04T08:10:51;0.97;;;0.90;;
68583;SDS011;55557;49.220;11.150;2024-02-04T08:13:17;0.73;;;0.73;;
68583;SDS011;55557;49.220;11.150;2024-02-04T08:15:43;1.57;;;1.20;;
68583;SDS011;55557;49.220;11.150;2024-02-04T08:18:09;1.20;;;1.10;;
68583;SDS011;55557;49.220;11.150;2024-02-04T08:20:35;1.70;;;1.53;;
68583;SDS011;55557;49.220;11.150;2024-02-04T08:23:01;1.83;;;1.50;;
68583;SDS011;55557;49.220;11.150;2024-02-04T08:25:28;2.10;;;1.60;;
68583;SDS011;55557;49.220;11.150;2024-02-04T08:27:54;3.10;;;2.20;;
68583;SDS011;55557;49.220;11.150;2024-02-04T08:30:20;1.77;;;1.50;;
68583;SDS011;55557;49.220;11.150;2024-02-04T08:32:46;1.30;;;1.20;;
68583;SDS011;55557;49.220;11.150;2024-02-04T08:35:12;1.03;;;0.93;;
68583;SDS011;55557;49.220;11.150;2024-02-04T08:37:37;2.23;;;1.70;;
68583;SDS011;55557;49.220;11.150;2024-02-04T08:40:05;1.07;;;0.90;;
68583;SDS011;55557;49.220;11.150;2024-02-04T08:42:32;1.63;;;1.20;;
68583;SDS011;55557;49.220;11.150;2024-02-04T08:44:58;1.30;;;1.20;;
68583;SDS011;55557;49.220;11.150;2024-02-04T08:47:24;1.73;;;0.80;;
68583;SDS011;55557;49.220;11.150;2024-02-04T08:49:50;0.70;;;0.70;;
68583;SDS011;55557;49.220;11.150;2024-02-04T08:52:16;1.47;;;1.10;;
68583;SDS011;55557;49.220;11.150;2024-02-04T08:54:42;1.73;;;1.30;;
68583;SDS011;55557;49.220;11.150;2024-02-04T08:57:08;1.93;;;1.20;;
68583;SDS011;55557;49.220;11.150;2024-02-04T08:59:34;1.20;;;1.10;;
68583;SDS011;55557;49.220;11.150;2024-02-04T09:02:00;1.50;;;1.00;;
68583;SDS011;55557;49.220;11.150;2024-02-04T09:04:26;2.53;;;1.00;;
68583;SDS011;55557;49.220;11.150;2024-02-04T09:06:52;1.83;;;0.73;;
68583;SDS011;55557;49.220;11.150;2024-02-04T09:09:18;0.70;;;0.70;;
68583;SDS011;55557;49.220;11.150;2024-02-04T09:11:45;1.40;;;1.10;;
68583;SDS011;55557;49.220;11.150;2024-02-04T09:14:11;1.77;;;1.20;;
68583;SDS011;55557;49.220;11.150;2024-02-04T09:16:37;0.57;;;0.57;;
68583;SDS011;55557;49.220;11.150;2024-02-04T09:19:03;0.80;;;0.80;;
68583;SDS011;55557;49.220;11.150;2024-02-04T09:21:29;1.60;;;0.80;;
68583;SDS011;55557;49.220;11.150;2024-02-04T09:23:55;1.20;;;1.07;;
68583;SDS011;55557;49.220;11.150;2024-02-04T09:26:22;1.80;;;0.90;;
68583;SDS011;55557;49.220;11.150;2024-02-04T09:28:48;0.80;;;0.80;;
68583;SDS011;55557;49.220;11.150;2024-02-04T09:31:14;1.90;;;1.23;;
68583;SDS011;55557;49.220;11.150;2024-02-04T09:33:41;1.87;;;1.33;;
68583;SDS011;55557;49.220;11.150;2024-02-04T09:36:07;3.30;;;1.77;;
68583;SDS011;55557;49.220;11.150;2024-02-04T09:38:33;1.83;;;1.23;;
68583;SDS011;55557;49.220;11.150;2024-02-04T09:41:01;1.13;;;1.03;;
68583;SDS011;55557;49.220;11.150;2024-02-04T09:43:33;1.20;;;1.10;;
68583;SDS011;55557;49.220;11.150;2024-02-04T09:46:01;2.47;;;1.20;;
68583;SDS011;55557;49.220;11.150;2024-02-04T09:48:29;1.53;;;1.30;;
68583;SDS011;55557;49.220;11.150;2024-02-04T09:50:57;0.80;;;0.80;;
68583;SDS011;55557;49.220;11.150;2024-02-04T09:53:28;0.77;;;0.77;;
68583;SDS011;55557;49.220;11.150;2024-02-04T09:55:56;0.70;;;0.70;;
68583;SDS011;55557;49.220;11.150;2024-02-04T09:58:23;2.50;;;0.70;;
68583;SDS011;55557;49.220;11.150;2024-02-04T10:00:49;0.70;;;0.70;;
68583;SDS011;55557;49.220;11.150;2024-02-04T10:03:16;0.53;;;0.53;;
68583;SDS011;55557;49.220;11.150;2024-02-04T10:05:42;1.63;;;1.00;;
68583;SDS011;55557;49.220;11.150;2024-02-04T10:08:08;1.07;;;0.97;;
68583;SDS011;55557;49.220;11.150;2024-02-04T10:10:34;1.10;;;1.00;;
68583;SDS011;55557;49.220;11.150;2024-02-04T10:13:05;1.03;;;0.80;;
68583;SDS011;55557;49.220;11.150;2024-02-04T10:15:31;1.20;;;1.10;;
68583;SDS011;55557;49.220;11.150;2024-02-04T10:17:57;1.10;;;0.80;;
68583;SDS011;55557;49.220;11.150;2024-02-04T10:20:23;0.80;;;0.67;;
68583;SDS011;55557;49.220;11.150;2024-02-04T10:22:49;2.60;;;1.33;;
68583;SDS011;55557;49.220;11.150;2024-02-04T10:25:15;3.70;;;1.40;;
68583;SDS011;55557;49.220;11.150;2024-02-04T10:27:42;0.97;;;0.87;;
68583;SDS011;55557;49.220;11.150;2024-02-04T10:30:08;3.67;;;1.50;;
68583;SDS011;55557;49.220;11.150;2024-02-04T10:32:34;1.33;;;0.87;;
68583;SDS011;55557;49.220;11.150;2024-02-04T10:35:00;0.60;;;0.53;;
68583;SDS011;55557;49.220;11.150;2024-02-04T10:37:27;0.60;;;0.50;;
68583;SDS011;55557;49.220;11.150;2024-02-04T10:39:53;1.00;;;0.60;;
68583;SDS011;55557;49.220;11.150;2024-02-04T10:42:21;1.63;;;0.97;;
68583;SDS011;55557;49.220;11.150;2024-02-04T10:44:48;2.50;;;1.20;;
68583;SDS011;55557;49.220;11.150;2024-02-04T10:47:16;0.73;;;0.70;;
68583;SDS011;55557;49.220;11.150;2024-02-04T10:49:44;1.13;;;0.80;;
68583;SDS011;55557;49.220;11.150;2024-02-04T10:52:13;1.63;;;1.00;;
68583;SDS011;55557;49.220;11.150;2024-02-04T10:54:40;2.30;;;1.40;;
68583;SDS011;55557;49.220;11.150;2024-02-04T10:57:08;2.97;;;1.70;;
68583;SDS011;55557;49.220;11.150;2024-02-04T10:59:36;1.73;;;1.37;;
68583;SDS011;55557;49.220;11.150;2024-02-04T11:02:03;2.47;;;1.80;;
68583;SDS011;55557;49.220;11.150;2024-02-04T11:04:31;2.23;;;1.60;;
68583;SDS011;55557;49.220;11.150;2024-02-04T11:06:58;1.53;;;1.30;;
68583;SDS011;55557;49.220;11.150;2024-02-04T11:09:26;1.23;;;1.03;;
68583;SDS011;55557;49.220;11.150;2024-02-04T11:11:53;4.20;;;1.50;;
68583;SDS011;55557;49.220;11.150;2024-02-04T11:14:21;2.37;;;1.20;;
68583;SDS011;55557;49.220;11.150;2024-02-04T11:19:31;1.90;;;1.10;;
68583;SDS011;55557;49.220;11.150;2024-02-04T11:22:04;2.10;;;1.20;;
68583;SDS011;55557;49.220;11.150;2024-02-04T11:24:42;1.50;;;1.10;;
68583;SDS011;55557;49.220;11.150;2024-02-04T11:27:10;2.33;;;1.33;;
68583;SDS011;55557;49.220;11.150;2024-02-04T11:29:36;0.73;;;0.73;;
68583;SDS011;55557;49.220;11.150;2024-02-04T11:32:03;1.00;;;1.00;;
68583;SDS011;55557;49.220;11.150;2024-02-04T11:34:29;2.47;;;1.10;;
68583;SDS011;55557;49.220;11.150;2024-02-04T11:36:55;2.00;;;1.53;;
68583;SDS011;55557;49.220;11.150;2024-02-04T11:39:23;3.30;;;1.53;;
68583;SDS011;55557;49.220;11.150;2024-02-04T11:41:50;0.93;;;0.80;;
68583;SDS011;55557;49.220;11.150;2024-02-04T11:44:23;1.90;;;1.23;;
68583;SDS011;55557;49.220;11.150;2024-02-04T11:46:50;3.77;;;1.50;;
68583;SDS011;55557;49.220;11.150;2024-02-04T11:49:19;4.57;;;1.30;;
68583;SDS011;55557;49.220;11.150;2024-02-04T11:51:47;3.93;;;1.33;;
68583;SDS011;55557;49.220;11.150;2024-02-04T11:54:14;0.60;;;0.60;;
68583;SDS011;55557;49.220;11.150;2024-02-04T11:56:41;1.63;;;1.33;;
68583;SDS011;55557;49.220;11.150;2024-02-04T11:59:07;1.13;;;1.03;;
68583;SDS011;55557;49.220;11.150;2024-02-04T12:01:34;2.07;;;1.50;;
68583;SDS011;55557;49.220;11.150;2024-02-04T12:04:15;1.40;;;1.10;;
68583;SDS011;55557;49.220;11.150;2024-02-04T12:06:41;2.40;;;1.30;;
68583;SDS011;55557;49.220;11.150;2024-02-04T12:09:10;4.13;;;1.77;;
68583;SDS011;55557;49.220;11.150;2024-02-04T12:11:37;5.47;;;2.23;;
68583;SDS011;55557;49.220;11.150;2024-02-04T12:14:04;3.97;;;2.27;;
68583;SDS011;55557;49.220;11.150;2024-02-04T12:16:30;0.77;;;0.77;;
68583;SDS011;55557;49.220;11.150;2024-02-04T12:18:57;6.57;;;2.97;;
68583;SDS011;55557;49.220;11.150;2024-02-04T12:21:24;3.20;;;1.87;;
68583;SDS011;55557;49.220;11.150;2024-02-04T12:23:50;3.83;;;1.70;;
68583;SDS011;55557;49.220;11.150;2024-02-04T12:26:16;1.23;;;0.80;;
68583;SDS011;55557;49.220;11.150;2024-02-04T12:28:42;1.53;;;1.00;;
68583;SDS011;55557;49.220;11.150;2024-02-04T12:31:16;1.67;;;1.10;;
68583;SDS011;55557;49.220;11.150;2024-02-04T12:33:42;1.47;;;1.20;;
68583;SDS011;55557;49.220;11.150;2024-02-04T12:36:09;0.93;;;0.87;;
68583;SDS011;55557;49.220;11.150;2024-02-04T12:38:35;1.67;;;0.97;;
68583;SDS011;55557;49.220;11.150;2024-02-04T12:41:01;1.57;;;1.17;;
68583;SDS011;55557;49.220;11.150;2024-02-04T12:43:28;1.60;;;0.87;;
68583;SDS011;55557;49.220;11.150;2024-02-04T12:45:56;0.90;;;0.77;;
68583;SDS011;55557;49.220;11.150;2024-02-04T12:48:24;1.67;;;1.30;;
68583;SDS011;55557;49.220;11.150;2024-02-04T12:50:52;1.17;;;1.07;;
68583;SDS011;55557;49.220;11.150;2024-02-04T12:53:18;1.13;;;0.90;;
68583;SDS011;55557;49.220;11.150;2024-02-04T12:55:44;0.87;;;0.70;;
68583;SDS011;55557;49.220;11.150;2024-02-04T12:58:11;1.97;;;1.20;;
68583;SDS011;55557;49.220;11.150;2024-02-04T13:00:39;1.53;;;1.10;;
68583;SDS011;55557;49.220;11.150;2024-02-04T13:03:06;3.67;;;1.40;;
68583;SDS011;55557;49.220;11.150;2024-02-04T13:05:36;2.53;;;1.20;;
68583;SDS011;55557;49.220;11.150;2024-02-04T13:08:03;1.13;;;0.87;;
68583;SDS011;55557;49.220;11.150;2024-02-04T13:10:33;1.40;;;1.13;;
68583;SDS011;55557;49.220;11.150;2024-02-04T13:15:29;2.00;;;1.60;;
68583;SDS011;55557;49.220;11.150;2024-02-04T13:17:55;1.57;;;1.07;;
68583;SDS011;55557;49.220;11.150;2024-02-04T13:20:21;1.57;;;0.53;;
68583;SDS011;55557;49.220;11.150;2024-02-04T13:22:48;3.40;;;3.10;;
68583;SDS011;55557;49.220;11.150;2024-02-04T13:25:14;1.77;;;1.30;;
68583;SDS011;55557;49.220;11.150;2024-02-04T13:27:40;5.90;;;1.00;;
68583;SDS011;55557;49.220;11.150;2024-02-04T13:30:07;0.73;;;0.73;;
68583;SDS011;55557;49.220;11.150;2024-02-04T13:32:40;1.53;;;1.30;;
68583;SDS011;55557;49.220;11.150;2024-02-04T13:35:07;2.10;;;0.93;;
68583;SDS011;55557;49.220;11.150;2024-02-04T13:37:36;1.00;;;0.80;;
68583;SDS011;55557;49.220;11.150;2024-02-04T13:40:03;1.03;;;0.80;;
68583;SDS011;55557;49.220;11.150;2024-02-04T13:42:30;1.10;;;1.00;;
68583;SDS011;55557;49.220;11.150;2024-02-04T13:44:57;0.80;;;0.80;;
68583;SDS011;55557;49.220;11.150;2024-02-04T13:47:23;0.70;;;0.70;;
68583;SDS011;55557;49.220;11.150;2024-02-04T13:49:49;2.90;;;1.67;;
68583;SDS011;55557;49.220;11.150;2024-02-04T13:52:15;0.93;;;0.90;;
68583;SDS011;55557;49.220;11.150;2024-02-04T13:54:41;2.10;;;1.37;;
68583;SDS011;55557;49.220;11.150;2024-02-04T13:57:07;3.77;;;2.10;;
68583;SDS011;55557;49.220;11.150;2024-02-04T13:59:33;2.00;;;1.40;;
68583;SDS011;55557;49.220;11.150;2024-02-04T14:01:59;2.77;;;1.50;;
68583;SDS011;55557;49.220;11.150;2024-02-04T14:04:25;2.20;;;1.13;;
68583;SDS011;55557;49.220;11.150;2024-02-04T14:06:51;1.70;;;1.60;;
68583;SDS011;55557;49.220;11.150;2024-02-04T14:09:17;1.07;;;0.97;;
68583;SDS011;55557;49.220;11.150;2024-02-04T14:11:43;1.70;;;1.40;;
68583;SDS011;55557;49.220;11.150;2024-02-04T14:14:09;1.27;;;1.17;;
68583;SDS011;55557;49.220;11.150;2024-02-04T14:16:35;2.73;;;2.17;;
68583;SDS011;55557;49.220;11.150;2024-02-04T14:19:01;2.53;;;1.70;;
68583;SDS011;55557;49.220;11.150;2024-02-04T14:21:27;2.33;;;0.80;;
68583;SDS011;55557;49.220;11.150;2024-02-04T14:23:53;1.63;;;1.43;;
68583;SDS011;55557;49.220;11.150;2024-02-04T14:26:19;2.97;;;1.37;;
68583;SDS011;55557;49.220;11.150;2024-02-04T14:28:45;2.37;;;1.37;;
68583;SDS011;55557;49.220;11.150;2024-02-04T14:31:11;1.97;;;1.07;;
68583;SDS011;55557;49.220;11.150;2024-02-04T14:33:37;2.00;;;1.00;;
68583;SDS011;55557;49.220;11.150;2024-02-04T14:36:04;1.53;;;1.03;;